sensor_id;sensor_type;location;lat;lon;timestamp;pressure;altitude;pressure_sealevel;temperature;humidity
27613;BME280;15036;48.094;-1.690;2022-11-15T00:00:44;100094.19;;;16.64;56.78
27613;BME280;15036;48.094;-1.690;2022-11-15T00:03:13;100091.75;;;16.67;56.83
27613;BME280;15036;48.094;-1.690;2022-11-15T00:05:38;100083.50;;;16.89;55.91
27613;BME280;15036;48.094;-1.690;2022-11-15T00:08:04;100084.00;;;16.86;55.53
27613;BME280;15036;48.094;-1.690;2022-11-15T00:10:29;100076.38;;;16.93;55.45
27613;BME280;15036;48.094;-1.690;2022-11-15T00:12:54;100063.56;;;16.43;56.56
27613;BME280;15036;48.094;-1.690;2022-11-15T00:15:20;100066.63;;;16.85;55.61
27613;BME280;15036;48.094;-1.690;2022-11-15T00:17:48;100054.59;;;16.70;56.01
27613;BME280;15036;48.094;-1.690;2022-11-15T00:20:14;100052.59;;;16.87;55.40
27613;BME280;15036;48.094;-1.690;2022-11-15T00:22:39;100042.91;;;16.84;55.61
27613;BME280;15036;48.094;-1.690;2022-11-15T00:25:05;100034.03;;;17.04;55.18
27613;BME280;15036;48.094;-1.690;2022-11-15T00:27:30;100027.13;;;16.80;55.32
27613;BME280;15036;48.094;-1.690;2022-11-15T00:29:56;100024.19;;;16.86;55.53
27613;BME280;15036;48.094;-1.690;2022-11-15T00:32:21;100016.38;;;16.78;55.26
27613;BME280;15036;48.094;-1.690;2022-11-15T00:34:46;100014.50;;;17.05;54.89
27613;BME280;15036;48.094;-1.690;2022-11-15T00:37:12;100009.34;;;16.66;55.89
27613;BME280;15036;48.094;-1.690;2022-11-15T00:39:37;100005.06;;;16.80;55.82
27613;BME280;15036;48.094;-1.690;2022-11-15T00:42:02;99980.56;;;17.05;54.93
27613;BME280;15036;48.094;-1.690;2022-11-15T00:44:28;99972.94;;;16.90;55.57
27613;BME280;15036;48.094;-1.690;2022-11-15T00:46:53;99968.25;;;17.17;54.81
27613;BME280;15036;48.094;-1.690;2022-11-15T00:49:19;99966.84;;;16.88;55.81
27613;BME280;15036;48.094;-1.690;2022-11-15T00:51:44;99949.59;;;17.24;54.71
27613;BME280;15036;48.094;-1.690;2022-11-15T00:54:09;99951.97;;;17.16;54.89
27613;BME280;15036;48.094;-1.690;2022-11-15T00:56:35;99943.34;;;17.07;55.16
27613;BME280;15036;48.094;-1.690;2022-11-15T00:59:00;99953.19;;;17.25;54.76
27613;BME280;15036;48.094;-1.690;2022-11-15T01:01:25;99948.03;;;17.07;54.99
27613;BME280;15036;48.094;-1.690;2022-11-15T01:03:51;99935.03;;;17.34;54.70
27613;BME280;15036;48.094;-1.690;2022-11-15T01:06:16;99933.03;;;17.24;55.06
27613;BME280;15036;48.094;-1.690;2022-11-15T01:08:41;99932.00;;;17.35;54.84
27613;BME280;15036;48.094;-1.690;2022-11-15T01:11:09;99920.59;;;17.54;54.25
27613;BME280;15036;48.094;-1.690;2022-11-15T01:13:36;99918.41;;;17.56;54.22
27613;BME280;15036;48.094;-1.690;2022-11-15T01:16:13;99900.97;;;17.18;54.90
27613;BME280;15036;48.094;-1.690;2022-11-15T01:18:40;99898.09;;;17.35;54.58
27613;BME280;15036;48.094;-1.690;2022-11-15T01:21:10;99897.16;;;17.24;54.66
27613;BME280;15036;48.094;-1.690;2022-11-15T01:23:36;99907.25;;;17.46;54.49
27613;BME280;15036;48.094;-1.690;2022-11-15T01:26:04;99894.00;;;17.43;54.42
27613;BME280;15036;48.094;-1.690;2022-11-15T01:28:40;99888.50;;;17.43;54.28
27613;BME280;15036;48.094;-1.690;2022-11-15T01:31:11;99882.97;;;17.43;54.37
27613;BME280;15036;48.094;-1.690;2022-11-15T01:33:37;99866.03;;;17.61;54.10
27613;BME280;15036;48.094;-1.690;2022-11-15T01:36:21;99869.66;;;17.71;53.89
27613;BME280;15036;48.094;-1.690;2022-11-15T01:38:52;99863.22;;;17.56;54.11
27613;BME280;15036;48.094;-1.690;2022-11-15T01:41:20;99870.41;;;17.57;54.37
27613;BME280;15036;48.094;-1.690;2022-11-15T01:43:49;99858.81;;;17.60;54.20
27613;BME280;15036;48.094;-1.690;2022-11-15T01:46:35;99862.94;;;17.57;54.01
27613;BME280;15036;48.094;-1.690;2022-11-15T01:49:05;99844.53;;;17.68;54.04
27613;BME280;15036;48.094;-1.690;2022-11-15T01:51:36;99851.66;;;17.59;54.13
27613;BME280;15036;48.094;-1.690;2022-11-15T01:54:08;99843.59;;;17.52;54.24
27613;BME280;15036;48.094;-1.690;2022-11-15T01:56:40;99831.50;;;17.58;53.84
27613;BME280;15036;48.094;-1.690;2022-11-15T01:59:08;99821.13;;;17.39;54.59
27613;BME280;15036;48.094;-1.690;2022-11-15T02:01:35;99817.47;;;17.70;54.02
27613;BME280;15036;48.094;-1.690;2022-11-15T02:04:20;99816.84;;;17.58;54.03
27613;BME280;15036;48.094;-1.690;2022-11-15T02:06:48;99815.44;;;17.50;54.37
27613;BME280;15036;48.094;-1.690;2022-11-15T02:09:14;99807.34;;;17.39;54.88
27613;BME280;15036;48.094;-1.690;2022-11-15T02:11:40;99802.69;;;17.44;54.73
27613;BME280;15036;48.094;-1.690;2022-11-15T02:14:07;99796.53;;;17.74;53.92
27613;BME280;15036;48.094;-1.690;2022-11-15T02:16:54;99773.88;;;17.72;54.10
27613;BME280;15036;48.094;-1.690;2022-11-15T02:22:20;99802.78;;;17.59;54.25
27613;BME280;15036;48.094;-1.690;2022-11-15T02:24:49;99787.16;;;17.85;53.86
27613;BME280;15036;48.094;-1.690;2022-11-15T02:32:48;99764.78;;;17.76;54.36
27613;BME280;15036;48.094;-1.690;2022-11-15T02:35:39;99758.22;;;17.97;53.70
27613;BME280;15036;48.094;-1.690;2022-11-15T02:41:06;99736.41;;;18.01;53.58
27613;BME280;15036;48.094;-1.690;2022-11-15T02:43:47;99725.00;;;17.67;54.47
27613;BME280;15036;48.094;-1.690;2022-11-15T02:46:39;99735.31;;;17.92;53.92
27613;BME280;15036;48.094;-1.690;2022-11-15T02:49:25;99725.34;;;17.86;54.11
27613;BME280;15036;48.094;-1.690;2022-11-15T02:51:53;99729.28;;;18.15;53.47
27613;BME280;15036;48.094;-1.690;2022-11-15T02:54:25;99715.97;;;17.97;53.95
27613;BME280;15036;48.094;-1.690;2022-11-15T02:56:54;99714.88;;;18.03;53.74
27613;BME280;15036;48.094;-1.690;2022-11-15T03:05:20;99691.69;;;17.94;53.85
27613;BME280;15036;48.094;-1.690;2022-11-15T03:10:32;99699.88;;;17.64;54.93
27613;BME280;15036;48.094;-1.690;2022-11-15T03:15:51;99688.63;;;17.80;54.79
27613;BME280;15036;48.094;-1.690;2022-11-15T03:18:38;99683.91;;;17.81;54.70
27613;BME280;15036;48.094;-1.690;2022-11-15T03:21:08;99675.28;;;17.52;55.38
27613;BME280;15036;48.094;-1.690;2022-11-15T03:23:36;99677.00;;;17.78;55.37
27613;BME280;15036;48.094;-1.690;2022-11-15T03:26:05;99683.66;;;17.87;55.06
27613;BME280;15036;48.094;-1.690;2022-11-15T03:28:40;99675.63;;;17.76;55.58
27613;BME280;15036;48.094;-1.690;2022-11-15T03:31:08;99666.53;;;17.90;55.11
27613;BME280;15036;48.094;-1.690;2022-11-15T03:33:55;99680.31;;;17.80;55.07
27613;BME280;15036;48.094;-1.690;2022-11-15T03:36:23;99663.03;;;17.43;56.33
27613;BME280;15036;48.094;-1.690;2022-11-15T03:38:55;99664.56;;;17.81;55.61
27613;BME280;15036;48.094;-1.690;2022-11-15T03:41:31;99651.28;;;17.58;56.47
27613;BME280;15036;48.094;-1.690;2022-11-15T03:46:34;99640.84;;;17.85;55.58
27613;BME280;15036;48.094;-1.690;2022-11-15T03:49:14;99641.69;;;17.80;56.11
27613;BME280;15036;48.094;-1.690;2022-11-15T03:51:40;99629.78;;;17.75;55.66
27613;BME280;15036;48.094;-1.690;2022-11-15T03:54:06;99626.50;;;17.93;55.79
27613;BME280;15036;48.094;-1.690;2022-11-15T03:56:31;99625.94;;;18.01;55.68
27613;BME280;15036;48.094;-1.690;2022-11-15T03:58:56;99612.16;;;18.11;55.34
27613;BME280;15036;48.094;-1.690;2022-11-15T04:01:22;99606.59;;;17.76;56.34
27613;BME280;15036;48.094;-1.690;2022-11-15T04:03:47;99606.91;;;17.99;55.58
27613;BME280;15036;48.094;-1.690;2022-11-15T04:06:13;99599.41;;;17.85;56.10
27613;BME280;15036;48.094;-1.690;2022-11-15T04:08:38;99593.34;;;17.63;56.93
27613;BME280;15036;48.094;-1.690;2022-11-15T04:11:03;99576.47;;;17.59;57.37
27613;BME280;15036;48.094;-1.690;2022-11-15T04:13:29;99565.06;;;17.25;57.98
27613;BME280;15036;48.094;-1.690;2022-11-15T04:15:54;99574.84;;;17.58;57.85
27613;BME280;15036;48.094;-1.690;2022-11-15T04:18:19;99577.00;;;17.51;57.68
27613;BME280;15036;48.094;-1.690;2022-11-15T04:20:45;99566.19;;;17.34;58.16
27613;BME280;15036;48.094;-1.690;2022-11-15T04:23:29;99560.50;;;17.66;57.66
27613;BME280;15036;48.094;-1.690;2022-11-15T04:26:18;99563.97;;;17.31;58.84
27613;BME280;15036;48.094;-1.690;2022-11-15T04:28:44;99563.13;;;17.26;58.97
27613;BME280;15036;48.094;-1.690;2022-11-15T04:31:28;99574.00;;;17.68;58.17
27613;BME280;15036;48.094;-1.690;2022-11-15T04:33:54;99550.75;;;17.44;58.95
27613;BME280;15036;48.094;-1.690;2022-11-15T04:36:20;99566.84;;;17.77;58.12
27613;BME280;15036;48.094;-1.690;2022-11-15T04:39:04;99556.31;;;17.54;58.88
27613;BME280;15036;48.094;-1.690;2022-11-15T04:41:30;99548.28;;;17.42;59.71
27613;BME280;15036;48.094;-1.690;2022-11-15T04:43:55;99539.41;;;17.30;59.76
27613;BME280;15036;48.094;-1.690;2022-11-15T04:46:21;99536.97;;;17.44;59.50
27613;BME280;15036;48.094;-1.690;2022-11-15T04:48:47;99542.47;;;17.28;60.25
27613;BME280;15036;48.094;-1.690;2022-11-15T04:51:12;99519.03;;;17.31;60.64
27613;BME280;15036;48.094;-1.690;2022-11-15T04:53:37;99527.28;;;17.41;60.25
27613;BME280;15036;48.094;-1.690;2022-11-15T04:56:03;99517.97;;;17.57;60.26
27613;BME280;15036;48.094;-1.690;2022-11-15T04:58:28;99518.22;;;17.46;60.61
27613;BME280;15036;48.094;-1.690;2022-11-15T05:00:54;99510.41;;;17.02;61.44
27613;BME280;15036;48.094;-1.690;2022-11-15T05:03:19;99510.97;;;17.19;61.17
27613;BME280;15036;48.094;-1.690;2022-11-15T05:06:03;99504.59;;;16.99;62.43
27613;BME280;15036;48.094;-1.690;2022-11-15T05:08:28;99502.72;;;17.24;61.63
27613;BME280;15036;48.094;-1.690;2022-11-15T05:10:54;99502.72;;;17.24;61.69
27613;BME280;15036;48.094;-1.690;2022-11-15T05:13:19;99492.19;;;16.96;62.65
27613;BME280;15036;48.094;-1.690;2022-11-15T05:15:44;99490.59;;;17.30;61.87
27613;BME280;15036;48.094;-1.690;2022-11-15T05:18:11;99482.31;;;17.25;61.91
27613;BME280;15036;48.094;-1.690;2022-11-15T05:20:36;99479.00;;;17.23;62.33
27613;BME280;15036;48.094;-1.690;2022-11-15T05:23:02;99470.16;;;17.21;62.11
27613;BME280;15036;48.094;-1.690;2022-11-15T05:25:27;99472.41;;;17.34;61.75
27613;BME280;15036;48.094;-1.690;2022-11-15T05:27:53;99462.44;;;17.03;63.08
27613;BME280;15036;48.094;-1.690;2022-11-15T05:30:18;99443.69;;;17.15;62.67
27613;BME280;15036;48.094;-1.690;2022-11-15T05:32:44;99459.97;;;17.32;62.09
27613;BME280;15036;48.094;-1.690;2022-11-15T05:35:15;99443.41;;;17.07;62.90
27613;BME280;15036;48.094;-1.690;2022-11-15T05:37:44;99442.56;;;17.06;63.21
27613;BME280;15036;48.094;-1.690;2022-11-15T05:40:09;99423.53;;;17.10;62.60
27613;BME280;15036;48.094;-1.690;2022-11-15T05:42:35;99423.56;;;17.20;62.75
27613;BME280;15036;48.094;-1.690;2022-11-15T05:45:02;99428.81;;;17.16;62.98
27613;BME280;15036;48.094;-1.690;2022-11-15T05:47:30;99428.22;;;17.04;63.33
27613;BME280;15036;48.094;-1.690;2022-11-15T05:49:56;99436.78;;;17.03;63.40
27613;BME280;15036;48.094;-1.690;2022-11-15T05:52:25;99430.94;;;16.84;64.04
27613;BME280;15036;48.094;-1.690;2022-11-15T05:54:55;99415.53;;;16.93;63.81
27613;BME280;15036;48.094;-1.690;2022-11-15T05:57:21;99426.25;;;16.80;64.47
27613;BME280;15036;48.094;-1.690;2022-11-15T05:59:47;99420.25;;;17.08;63.50
27613;BME280;15036;48.094;-1.690;2022-11-15T06:02:12;99417.75;;;17.21;63.54
27613;BME280;15036;48.094;-1.690;2022-11-15T06:04:38;99416.91;;;16.91;64.29
27613;BME280;15036;48.094;-1.690;2022-11-15T06:07:03;99413.09;;;17.37;62.79
27613;BME280;15036;48.094;-1.690;2022-11-15T06:09:28;99417.53;;;17.33;63.05
27613;BME280;15036;48.094;-1.690;2022-11-15T06:11:54;99402.34;;;17.30;63.31
27613;BME280;15036;48.094;-1.690;2022-11-15T06:14:19;99406.16;;;17.09;63.92
27613;BME280;15036;48.094;-1.690;2022-11-15T06:16:45;99403.44;;;17.29;63.84
27613;BME280;15036;48.094;-1.690;2022-11-15T06:19:10;99396.22;;;16.83;64.94
27613;BME280;15036;48.094;-1.690;2022-11-15T06:21:36;99380.53;;;17.04;64.40
27613;BME280;15036;48.094;-1.690;2022-11-15T06:24:01;99380.28;;;17.20;64.01
27613;BME280;15036;48.094;-1.690;2022-11-15T06:26:26;99378.31;;;16.96;64.46
27613;BME280;15036;48.094;-1.690;2022-11-15T06:28:52;99388.25;;;17.12;64.25
27613;BME280;15036;48.094;-1.690;2022-11-15T06:31:17;99389.94;;;17.13;63.99
27613;BME280;15036;48.094;-1.690;2022-11-15T06:33:43;99384.66;;;17.11;63.92
27613;BME280;15036;48.094;-1.690;2022-11-15T06:36:11;99372.53;;;16.87;64.75
27613;BME280;15036;48.094;-1.690;2022-11-15T06:38:41;99362.31;;;16.73;65.48
27613;BME280;15036;48.094;-1.690;2022-11-15T06:41:08;99355.44;;;17.00;64.65
27613;BME280;15036;48.094;-1.690;2022-11-15T06:43:34;99354.63;;;17.20;64.19
27613;BME280;15036;48.094;-1.690;2022-11-15T06:46:01;99359.56;;;17.28;64.46
27613;BME280;15036;48.094;-1.690;2022-11-15T06:48:28;99343.31;;;17.11;65.00
27613;BME280;15036;48.094;-1.690;2022-11-15T06:50:55;99354.34;;;17.16;64.94
27613;BME280;15036;48.094;-1.690;2022-11-15T06:53:20;99340.56;;;17.16;65.10
27613;BME280;15036;48.094;-1.690;2022-11-15T06:55:46;99335.59;;;16.98;65.97
27613;BME280;15036;48.094;-1.690;2022-11-15T06:58:11;99321.78;;;17.59;63.81
27613;BME280;15036;48.094;-1.690;2022-11-15T07:00:37;99320.44;;;17.31;64.75
27613;BME280;15036;48.094;-1.690;2022-11-15T07:03:03;99331.44;;;17.26;65.30
27613;BME280;15036;48.094;-1.690;2022-11-15T07:05:29;99319.59;;;17.20;65.38
27613;BME280;15036;48.094;-1.690;2022-11-15T07:07:55;99318.22;;;17.13;65.78
27613;BME280;15036;48.094;-1.690;2022-11-15T07:10:22;99320.41;;;17.56;64.69
27613;BME280;15036;48.094;-1.690;2022-11-15T07:12:52;99331.16;;;17.32;65.49
27613;BME280;15036;48.094;-1.690;2022-11-15T07:15:19;99308.53;;;17.41;64.99
27613;BME280;15036;48.094;-1.690;2022-11-15T07:17:45;99319.31;;;17.27;66.00
27613;BME280;15036;48.094;-1.690;2022-11-15T07:20:12;99314.31;;;17.44;65.78
27613;BME280;15036;48.094;-1.690;2022-11-15T07:22:38;99298.09;;;17.22;66.41
27613;BME280;15036;48.094;-1.690;2022-11-15T07:25:04;99317.94;;;17.55;65.40
27613;BME280;15036;48.094;-1.690;2022-11-15T07:27:29;99316.81;;;17.25;66.51
27613;BME280;15036;48.094;-1.690;2022-11-15T07:29:55;99307.97;;;17.69;65.43
27613;BME280;15036;48.094;-1.690;2022-11-15T07:32:20;99316.53;;;17.52;65.95
27613;BME280;15036;48.094;-1.690;2022-11-15T07:34:45;99312.31;;;17.75;65.23
27613;BME280;15036;48.094;-1.690;2022-11-15T07:37:11;99299.69;;;17.54;65.92
27613;BME280;15036;48.094;-1.690;2022-11-15T07:39:37;99310.13;;;17.77;65.24
27613;BME280;15036;48.094;-1.690;2022-11-15T07:42:03;99306.59;;;17.51;66.14
27613;BME280;15036;48.094;-1.690;2022-11-15T07:44:47;99298.03;;;17.48;66.31
27613;BME280;15036;48.094;-1.690;2022-11-15T07:47:12;99303.84;;;17.51;66.41
27613;BME280;15036;48.094;-1.690;2022-11-15T07:49:37;99309.38;;;17.56;66.31
27613;BME280;15036;48.094;-1.690;2022-11-15T07:52:03;99295.72;;;17.90;65.52
27613;BME280;15036;48.094;-1.690;2022-11-15T07:54:28;99320.06;;;17.78;65.82
27613;BME280;15036;48.094;-1.690;2022-11-15T07:56:54;99314.97;;;18.10;64.57
27613;BME280;15036;48.094;-1.690;2022-11-15T07:59:19;99314.44;;;18.08;64.83
27613;BME280;15036;48.094;-1.690;2022-11-15T08:01:44;99318.38;;;17.92;65.35
27613;BME280;15036;48.094;-1.690;2022-11-15T08:04:11;99311.97;;;18.01;65.05
27613;BME280;15036;48.094;-1.690;2022-11-15T08:06:37;99317.56;;;17.86;65.56
27613;BME280;15036;48.094;-1.690;2022-11-15T08:09:03;99318.41;;;17.82;65.67
27613;BME280;15036;48.094;-1.690;2022-11-15T08:11:28;99326.09;;;17.85;65.84
27613;BME280;15036;48.094;-1.690;2022-11-15T08:13:54;99318.13;;;17.78;66.29
27613;BME280;15036;48.094;-1.690;2022-11-15T08:16:19;99336.06;;;17.81;66.42
27613;BME280;15036;48.094;-1.690;2022-11-15T08:18:45;99330.31;;;17.47;67.53
27613;BME280;15036;48.094;-1.690;2022-11-15T08:21:13;99292.97;;;17.85;66.72
27613;BME280;15036;48.094;-1.690;2022-11-15T08:23:39;99304.00;;;17.90;66.35
27613;BME280;15036;48.094;-1.690;2022-11-15T08:26:05;99312.63;;;17.78;66.67
27613;BME280;15036;48.094;-1.690;2022-11-15T08:28:31;99313.75;;;17.47;68.51
27613;BME280;15036;48.094;-1.690;2022-11-15T08:30:58;99322.25;;;17.86;66.99
27613;BME280;15036;48.094;-1.690;2022-11-15T08:33:23;99310.63;;;17.89;67.05
27613;BME280;15036;48.094;-1.690;2022-11-15T08:35:49;99304.97;;;17.20;69.51
27613;BME280;15036;48.094;-1.690;2022-11-15T08:38:15;99318.75;;;17.35;69.11
27613;BME280;15036;48.094;-1.690;2022-11-15T08:40:40;99315.44;;;17.53;68.84
27613;BME280;15036;48.094;-1.690;2022-11-15T08:43:05;99313.75;;;17.67;68.34
27613;BME280;15036;48.094;-1.690;2022-11-15T08:45:31;99320.34;;;17.71;68.59
27613;BME280;15036;48.094;-1.690;2022-11-15T08:48:01;99308.00;;;17.59;68.49
27613;BME280;15036;48.094;-1.690;2022-11-15T08:50:26;99305.69;;;17.81;68.19
27613;BME280;15036;48.094;-1.690;2022-11-15T08:52:51;99279.03;;;17.36;69.08
27613;BME280;15036;48.094;-1.690;2022-11-15T08:55:17;99287.53;;;17.70;68.09
27613;BME280;15036;48.094;-1.690;2022-11-15T08:57:42;99285.91;;;17.54;68.72
27613;BME280;15036;48.094;-1.690;2022-11-15T09:00:08;99258.69;;;16.97;70.40
27613;BME280;15036;48.094;-1.690;2022-11-15T09:02:34;99269.41;;;17.28;69.36
27613;BME280;15036;48.094;-1.690;2022-11-15T09:04:59;99251.19;;;17.32;69.10
27613;BME280;15036;48.094;-1.690;2022-11-15T09:07:24;99265.81;;;17.23;69.04
27613;BME280;15036;48.094;-1.690;2022-11-15T09:09:50;99239.84;;;17.44;68.19
27613;BME280;15036;48.094;-1.690;2022-11-15T09:12:15;99259.41;;;17.48;68.93
27613;BME280;15036;48.094;-1.690;2022-11-15T09:14:40;99257.44;;;17.63;68.04
27613;BME280;15036;48.094;-1.690;2022-11-15T09:17:09;99278.72;;;18.22;66.32
27613;BME280;15036;48.094;-1.690;2022-11-15T09:19:34;99267.75;;;18.06;66.69
27613;BME280;15036;48.094;-1.690;2022-11-15T09:22:00;99256.66;;;17.58;67.69
27613;BME280;15036;48.094;-1.690;2022-11-15T09:24:25;99270.44;;;17.58;67.82
27613;BME280;15036;48.094;-1.690;2022-11-15T09:26:51;99249.34;;;17.87;67.13
27613;BME280;15036;48.094;-1.690;2022-11-15T09:29:17;99266.56;;;18.23;66.25
27613;BME280;15036;48.094;-1.690;2022-11-15T09:31:43;99268.88;;;18.54;65.42
27613;BME280;15036;48.094;-1.690;2022-11-15T09:34:08;99266.72;;;18.46;65.29
27613;BME280;15036;48.094;-1.690;2022-11-15T09:36:34;99253.97;;;18.01;66.25
27613;BME280;15036;48.094;-1.690;2022-11-15T09:39:00;99260.44;;;18.31;65.56
27613;BME280;15036;48.094;-1.690;2022-11-15T09:49:59;99255.16;;;17.85;67.37
27613;BME280;15036;48.094;-1.690;2022-11-15T09:52:34;99255.09;;;18.49;65.41
27613;BME280;15036;48.094;-1.690;2022-11-15T09:55:00;99244.50;;;18.12;66.03
27613;BME280;15036;48.094;-1.690;2022-11-15T10:00:20;99246.53;;;17.97;66.50
27613;BME280;15036;48.094;-1.690;2022-11-15T10:05:38;99261.03;;;18.66;65.04
27613;BME280;15036;48.094;-1.690;2022-11-15T10:08:29;99253.81;;;18.32;65.82
27613;BME280;15036;48.094;-1.690;2022-11-15T10:11:01;99249.09;;;17.88;67.39
27613;BME280;15036;48.094;-1.690;2022-11-15T10:13:31;99236.31;;;18.02;67.39
27613;BME280;15036;48.094;-1.690;2022-11-15T10:21:35;99223.06;;;17.99;67.63
27613;BME280;15036;48.094;-1.690;2022-11-15T10:24:19;99248.66;;;17.46;69.72
27613;BME280;15036;48.094;-1.690;2022-11-15T10:26:48;99257.25;;;18.08;67.27
27613;BME280;15036;48.094;-1.690;2022-11-15T10:29:21;99277.75;;;18.51;66.35
27613;BME280;15036;48.094;-1.690;2022-11-15T10:31:47;99272.09;;;18.23;67.29
27613;BME280;15036;48.094;-1.690;2022-11-15T10:34:21;99268.63;;;18.51;66.38
27613;BME280;15036;48.094;-1.690;2022-11-15T10:36:58;99262.59;;;18.44;66.47
27613;BME280;15036;48.094;-1.690;2022-11-15T10:39:24;99273.16;;;18.32;67.18
27613;BME280;15036;48.094;-1.690;2022-11-15T10:41:50;99257.03;;;18.87;65.61
27613;BME280;15036;48.094;-1.690;2022-11-15T10:46:43;99252.97;;;18.75;66.27
27613;BME280;15036;48.094;-1.690;2022-11-15T10:49:19;99245.75;;;19.08;64.97
27613;BME280;15036;48.094;-1.690;2022-11-15T10:51:49;99235.53;;;18.74;66.27
27613;BME280;15036;48.094;-1.690;2022-11-15T10:56:53;99232.22;;;19.06;65.56
27613;BME280;15036;48.094;-1.690;2022-11-15T10:59:26;99228.38;;;19.31;64.74
27613;BME280;15036;48.094;-1.690;2022-11-15T11:01:53;99225.47;;;19.17;64.83
27613;BME280;15036;48.094;-1.690;2022-11-15T11:04:18;99224.16;;;19.38;64.37
27613;BME280;15036;48.094;-1.690;2022-11-15T11:06:58;99219.28;;;19.54;63.77
27613;BME280;15036;48.094;-1.690;2022-11-15T11:09:31;99203.72;;;19.58;63.66
27613;BME280;15036;48.094;-1.690;2022-11-15T11:11:57;99211.84;;;19.49;63.65
27613;BME280;15036;48.094;-1.690;2022-11-15T11:14:28;99210.72;;;19.74;63.01
27613;BME280;15036;48.094;-1.690;2022-11-15T11:25:17;99187.66;;;20.21;61.58
27613;BME280;15036;48.094;-1.690;2022-11-15T11:33:21;99168.78;;;20.41;60.71
27613;BME280;15036;48.094;-1.690;2022-11-15T11:39:02;99172.00;;;20.62;60.39
27613;BME280;15036;48.094;-1.690;2022-11-15T11:52:31;99163.09;;;19.53;62.71
27613;BME280;15036;48.094;-1.690;2022-11-15T11:55:02;99153.88;;;18.58;64.62
27613;BME280;15036;48.094;-1.690;2022-11-15T11:57:38;99148.56;;;18.90;63.55
27613;BME280;15036;48.094;-1.690;2022-11-15T12:00:18;99167.41;;;18.60;63.05
27613;BME280;15036;48.094;-1.690;2022-11-15T12:05:40;99149.44;;;19.15;61.07
27613;BME280;15036;48.094;-1.690;2022-11-15T12:11:21;99154.66;;;18.92;60.23
27613;BME280;15036;48.094;-1.690;2022-11-15T12:13:52;99145.53;;;19.16;60.51
27613;BME280;15036;48.094;-1.690;2022-11-15T12:16:27;99145.84;;;19.38;59.49
27613;BME280;15036;48.094;-1.690;2022-11-15T12:18:55;99149.63;;;19.23;59.87
27613;BME280;15036;48.094;-1.690;2022-11-15T12:24:04;99141.03;;;19.67;59.43
27613;BME280;15036;48.094;-1.690;2022-11-15T12:26:42;99137.53;;;19.80;58.73
27613;BME280;15036;48.094;-1.690;2022-11-15T12:29:16;99139.31;;;19.71;58.75
27613;BME280;15036;48.094;-1.690;2022-11-15T12:31:48;99128.59;;;19.46;57.33
27613;BME280;15036;48.094;-1.690;2022-11-15T12:36:44;99123.81;;;19.51;57.45
27613;BME280;15036;48.094;-1.690;2022-11-15T12:39:10;99118.81;;;19.72;57.04
27613;BME280;15036;48.094;-1.690;2022-11-15T12:41:39;99108.50;;;19.59;56.39
27613;BME280;15036;48.094;-1.690;2022-11-15T12:44:11;99117.59;;;20.15;54.94
27613;BME280;15036;48.094;-1.690;2022-11-15T13:17:43;99089.31;;;19.81;52.58
27613;BME280;15036;48.094;-1.690;2022-11-15T13:27:57;99080.19;;;20.50;52.04
27613;BME280;15036;48.094;-1.690;2022-11-15T13:30:27;99066.19;;;20.87;51.32
27613;BME280;15036;48.094;-1.690;2022-11-15T13:32:54;99069.97;;;20.78;51.47
27613;BME280;15036;48.094;-1.690;2022-11-15T13:35:27;99063.19;;;20.84;50.87
27613;BME280;15036;48.094;-1.690;2022-11-15T13:37:54;99056.63;;;20.80;51.17
27613;BME280;15036;48.094;-1.690;2022-11-15T13:40:27;99069.50;;;20.43;51.98
27613;BME280;15036;48.094;-1.690;2022-11-15T13:42:56;99067.28;;;20.86;50.93
27613;BME280;15036;48.094;-1.690;2022-11-15T13:45:23;99094.09;;;20.31;53.98
27613;BME280;15036;48.094;-1.690;2022-11-15T13:47:56;99096.47;;;19.68;56.28
27613;BME280;15036;48.094;-1.690;2022-11-15T13:50:27;99102.16;;;19.11;57.84
27613;BME280;15036;48.094;-1.690;2022-11-15T13:52:58;99104.38;;;19.94;56.98
27613;BME280;15036;48.094;-1.690;2022-11-15T13:55:25;99101.75;;;20.21;56.74
27613;BME280;15036;48.094;-1.690;2022-11-15T13:57:58;99100.34;;;20.23;56.72
27613;BME280;15036;48.094;-1.690;2022-11-15T14:02:49;99096.81;;;19.62;54.40
27613;BME280;15036;48.094;-1.690;2022-11-15T14:05:20;99098.97;;;19.65;53.86
27613;BME280;15036;48.094;-1.690;2022-11-15T14:10:41;99107.69;;;20.46;51.30
27613;BME280;15036;48.094;-1.690;2022-11-15T14:13:26;99104.56;;;20.34;50.93
27613;BME280;15036;48.094;-1.690;2022-11-15T14:15:52;99104.75;;;20.24;50.63
27613;BME280;15036;48.094;-1.690;2022-11-15T14:21:11;99093.97;;;20.55;49.48
27613;BME280;15036;48.094;-1.690;2022-11-15T14:23:37;99111.69;;;20.03;49.08
27613;BME280;15036;48.094;-1.690;2022-11-15T14:26:02;99106.00;;;20.13;48.43
27613;BME280;15036;48.094;-1.690;2022-11-15T14:28:31;99100.41;;;19.81;49.21
27613;BME280;15036;48.094;-1.690;2022-11-15T14:30:59;99094.03;;;19.99;48.55
27613;BME280;15036;48.094;-1.690;2022-11-15T14:33:34;99102.34;;;19.99;48.30
27613;BME280;15036;48.094;-1.690;2022-11-15T14:36:10;99102.75;;;19.74;48.36
27613;BME280;15036;48.094;-1.690;2022-11-15T14:38:36;99105.94;;;19.81;49.00
27613;BME280;15036;48.094;-1.690;2022-11-15T14:41:01;99104.41;;;20.44;47.77
27613;BME280;15036;48.094;-1.690;2022-11-15T14:43:27;99102.75;;;19.74;48.68
27613;BME280;15036;48.094;-1.690;2022-11-15T14:45:52;99098.84;;;19.56;48.80
27613;BME280;15036;48.094;-1.690;2022-11-15T14:48:17;99102.28;;;19.67;49.45
27613;BME280;15036;48.094;-1.690;2022-11-15T14:50:43;99113.25;;;19.35;50.02
27613;BME280;15036;48.094;-1.690;2022-11-15T14:53:15;99120.28;;;18.98;51.20
27613;BME280;15036;48.094;-1.690;2022-11-15T14:55:40;99133.84;;;18.71;51.59
27613;BME280;15036;48.094;-1.690;2022-11-15T14:58:07;99170.22;;;18.55;48.34
27613;BME280;15036;48.094;-1.690;2022-11-15T15:00:37;99119.50;;;18.69;49.03
27613;BME280;15036;48.094;-1.690;2022-11-15T15:03:04;99124.78;;;19.42;49.53
27613;BME280;15036;48.094;-1.690;2022-11-15T15:05:38;99129.88;;;19.53;47.33
27613;BME280;15036;48.094;-1.690;2022-11-15T15:08:05;99131.72;;;20.00;46.06
27613;BME280;15036;48.094;-1.690;2022-11-15T15:10:33;99123.91;;;20.02;45.48
27613;BME280;15036;48.094;-1.690;2022-11-15T15:12:59;99115.66;;;19.60;44.21